createdAt,value
2023-01-11T00:02:38.201Z,40.80
2023-01-11T00:06:39.364Z,39.20
2023-01-11T00:10:49.045Z,35.60
2023-01-11T00:14:46.849Z,39.00
2023-01-11T00:18:36.318Z,40.90
2023-01-11T00:22:26.238Z,37.30
2023-01-11T00:26:37.522Z,35.80
2023-01-11T00:30:27.167Z,34.30
2023-01-11T00:34:16.603Z,34.90
2023-01-11T00:38:07.526Z,32.60
2023-01-11T00:42:00.140Z,34.70
2023-01-11T00:45:52.260Z,38.50
2023-01-11T00:49:43.938Z,37.10
2023-01-11T00:53:53.882Z,36.60
2023-01-11T00:58:03.720Z,40.10
2023-01-11T01:02:01.619Z,36.40
2023-01-11T01:05:51.061Z,38.50
2023-01-11T01:09:56.182Z,33.50
2023-01-11T01:14:19.167Z,35.30
2023-01-11T01:18:26.919Z,32.00
2023-01-11T01:22:16.417Z,35.30
2023-01-11T01:26:25.230Z,25.90
2023-01-11T01:30:14.653Z,28.90
2023-01-11T01:34:04.217Z,30.20
2023-01-11T01:38:22.545Z,28.00
2023-01-11T01:42:13.892Z,30.50
2023-01-11T01:46:03.369Z,32.20
2023-01-11T01:49:55.429Z,25.40
2023-01-11T01:53:49.688Z,29.90
2023-01-11T01:57:40.641Z,32.30
2023-01-11T02:01:44.503Z,27.30
2023-01-11T02:05:53.760Z,32.20
2023-01-11T02:09:48.482Z,38.50
2023-01-11T02:13:38.823Z,39.80
2023-01-11T02:17:36.698Z,48.00
2023-01-11T02:21:25.516Z,44.60
2023-01-11T02:25:27.555Z,37.00
2023-01-11T02:29:39.386Z,37.00
2023-01-11T02:33:35.656Z,40.40
2023-01-11T02:37:50.128Z,34.70
2023-01-11T02:42:00.113Z,29.10
2023-01-11T02:45:53.247Z,31.00
2023-01-11T02:49:47.187Z,40.30
2023-01-11T02:53:42.696Z,33.80
2023-01-11T02:57:34.487Z,30.70
2023-01-11T03:01:12.082Z,35.00
2023-01-11T03:05:01.519Z,27.00
2023-01-11T03:08:55.338Z,28.40
2023-01-11T03:12:24.426Z,31.40
2023-01-11T03:16:20.317Z,29.50
2023-01-11T03:20:15.808Z,28.70
2023-01-11T03:24:31.014Z,30.20
2023-01-11T03:28:29.244Z,34.70
2023-01-11T03:32:22.171Z,27.50
2023-01-11T03:36:20.790Z,30.60
2023-01-11T03:40:09.133Z,30.60
2023-01-11T03:43:48.190Z,44.20
2023-01-11T03:47:40.412Z,40.10
2023-01-11T03:51:30.088Z,35.60
2023-01-11T03:55:24.157Z,33.40
2023-01-11T03:59:15.120Z,29.20
2023-01-11T04:03:07.068Z,28.50
2023-01-11T04:06:56.370Z,37.80
2023-01-11T04:10:45.623Z,50.00
2023-01-11T04:14:26.766Z,48.20
2023-01-11T04:18:08.221Z,32.50
2023-01-11T04:21:53.803Z,32.50
2023-01-11T04:25:43.959Z,34.90
2023-01-11T04:29:34.807Z,32.90
2023-01-11T04:33:24.607Z,30.70
2023-01-11T04:37:13.783Z,21.10
2023-01-11T04:41:02.967Z,25.80
2023-01-11T04:44:56.632Z,24.80
2023-01-11T04:48:46.123Z,23.70
2023-01-11T04:52:37.140Z,23.40
2023-01-11T04:56:27.285Z,29.70
2023-01-11T05:00:02.119Z,25.90
2023-01-11T05:03:51.683Z,26.80
2023-01-11T05:07:41.215Z,27.30
2023-01-11T05:11:33.462Z,30.60
2023-01-11T05:15:23.003Z,29.40
2023-01-11T05:18:54.890Z,28.40
2023-01-11T05:22:43.706Z,31.90
2023-01-11T05:26:34.743Z,29.50
2023-01-11T05:30:08.000Z,26.30
2023-01-11T05:33:56.748Z,31.40
2023-01-11T05:37:32.229Z,30.40
2023-01-11T05:41:16.300Z,28.50
2023-01-11T05:44:58.169Z,33.90
2023-01-11T05:48:49.477Z,27.30
2023-01-11T05:52:16.728Z,27.60
2023-01-11T05:56:06.122Z,22.70
2023-01-11T05:59:41.058Z,25.40
2023-01-11T06:03:30.046Z,27.20
2023-01-11T06:07:13.573Z,23.90
2023-01-11T06:10:47.358Z,30.60
2023-01-11T06:14:11.608Z,34.10
2023-01-11T06:17:56.089Z,25.70
2023-01-11T06:21:45.576Z,21.30
2023-01-11T06:25:35.138Z,19.30
2023-01-11T06:29:24.217Z,21.80
2023-01-11T06:33:08.852Z,20.70
2023-01-11T06:36:49.107Z,18.90
2023-01-11T06:40:38.135Z,20.60
2023-01-11T06:44:20.061Z,18.90
2023-01-11T06:48:09.088Z,21.50
2023-01-11T06:51:58.587Z,20.30
2023-01-11T06:55:47.773Z,18.90
2023-01-11T06:59:36.748Z,19.50
2023-01-11T07:03:16.115Z,20.00
2023-01-11T07:06:56.355Z,20.80
2023-01-11T07:10:25.761Z,19.30
2023-01-11T07:14:15.000Z,21.60
2023-01-11T07:18:03.759Z,24.60
2023-01-11T07:21:41.985Z,22.60
2023-01-11T07:25:00.408Z,30.00
2023-01-11T07:28:37.121Z,26.40
2023-01-11T07:32:26.248Z,32.30
2023-01-11T07:36:07.188Z,23.90
2023-01-11T07:39:49.073Z,25.80
2023-01-11T07:43:38.557Z,18.60
2023-01-11T07:47:25.557Z,21.60
2023-01-11T07:51:15.216Z,19.20
2023-01-11T07:54:39.779Z,19.90
2023-01-11T07:58:04.129Z,20.30
2023-01-11T08:01:53.966Z,20.10
2023-01-11T08:05:29.143Z,20.60
2023-01-11T08:09:18.310Z,20.80
2023-01-11T08:13:10.494Z,23.30
2023-01-11T08:16:50.716Z,19.00
2023-01-11T08:20:40.308Z,44.10
2023-01-11T08:24:29.466Z,32.90
2023-01-11T08:28:16.952Z,24.70
2023-01-11T08:31:59.298Z,25.50
2023-01-11T08:35:48.079Z,25.00
2023-01-11T08:39:36.996Z,27.70
2023-01-11T08:43:27.298Z,29.30
2023-01-11T08:47:16.819Z,21.50
2023-01-11T08:51:07.105Z,16.10
2023-01-11T08:54:57.313Z,17.20
2023-01-11T08:59:00.726Z,19.30
2023-01-11T09:02:50.961Z,18.40
2023-01-11T09:06:43.022Z,19.10
2023-01-11T09:10:33.340Z,21.10
2023-01-11T09:14:22.386Z,18.70
2023-01-11T09:18:11.892Z,17.80
2023-01-11T09:22:01.590Z,21.20
2023-01-11T09:25:50.979Z,22.40
2023-01-11T09:29:41.392Z,26.10
2023-01-11T09:33:31.299Z,28.90
2023-01-11T09:37:21.174Z,26.40
2023-01-11T09:41:19.799Z,21.60
2023-01-11T09:45:17.410Z,20.10
2023-01-11T09:48:50.794Z,16.80
2023-01-11T09:52:44.231Z,16.80
2023-01-11T09:56:34.715Z,13.90
2023-01-11T10:00:32.222Z,11.90
2023-01-11T10:04:36.474Z,23.90
2023-01-11T10:18:28.389Z,59.10
2023-01-11T10:21:32.349Z,36.00
2023-01-11T10:25:29.904Z,38.80
2023-01-11T10:29:42.605Z,36.10
2023-01-11T10:33:39.371Z,34.80
2023-01-11T10:37:33.328Z,33.10
2023-01-11T10:41:39.958Z,16.60
2023-01-11T10:45:34.579Z,15.30
2023-01-11T10:49:36.499Z,17.10
2023-01-11T10:53:26.357Z,17.60
2023-01-11T10:57:19.650Z,13.80
2023-01-11T11:01:19.363Z,11.90
2023-01-11T11:05:19.805Z,15.80
2023-01-11T11:09:26.084Z,13.30
2023-01-11T11:13:19.240Z,16.80
2023-01-11T11:17:26.758Z,15.00
2023-01-11T11:21:36.509Z,14.80
2023-01-11T11:25:23.215Z,19.00
2023-01-11T11:29:42.140Z,33.00
2023-01-11T11:33:42.067Z,56.50
2023-01-11T11:37:34.357Z,48.80
2023-01-11T11:41:25.555Z,44.40
2023-01-11T11:45:50.814Z,18.70
2023-01-11T11:49:58.402Z,20.90
2023-01-11T11:53:51.502Z,17.80
2023-01-11T11:57:57.960Z,16.50
2023-01-11T12:02:06.741Z,12.40
2023-01-11T12:06:30.220Z,12.80
2023-01-11T12:10:25.611Z,13.60
2023-01-11T12:14:30.451Z,10.10
2023-01-11T12:18:54.973Z,12.10
2023-01-11T12:22:51.701Z,12.20
2023-01-11T12:26:49.897Z,17.10
2023-01-11T12:30:48.884Z,17.50
2023-01-11T12:35:10.572Z,15.00
2023-01-11T12:39:18.675Z,13.30
2023-01-11T12:43:17.698Z,14.40
2023-01-11T12:47:28.658Z,12.60
2023-01-11T12:51:18.459Z,13.10
2023-01-11T12:59:31.637Z,12.90
2023-01-11T13:03:45.770Z,13.10
2023-01-11T13:07:48.162Z,16.30
2023-01-11T13:12:05.553Z,14.60
2023-01-11T13:15:59.922Z,17.60
2023-01-11T13:20:18.553Z,17.60
2023-01-11T13:24:26.334Z,18.50
2023-01-11T13:28:23.990Z,17.90
2023-01-11T13:32:22.804Z,13.70
2023-01-11T13:36:23.151Z,16.30
2023-01-11T13:40:19.409Z,16.50
2023-01-11T13:44:21.531Z,13.50
2023-01-11T13:48:20.879Z,13.90
2023-01-11T13:52:19.420Z,15.60
2023-01-11T13:55:59.978Z,13.50
2023-01-11T14:00:23.251Z,13.80
2023-01-11T14:04:31.155Z,15.40
2023-01-11T14:08:34.128Z,14.60
2023-01-11T14:12:37.032Z,12.90
2023-01-11T14:16:30.227Z,14.10
2023-01-11T14:20:42.005Z,18.00
2023-01-11T14:24:54.631Z,15.80
2023-01-11T14:29:00.350Z,16.30
2023-01-11T14:32:56.598Z,15.90
2023-01-11T14:36:50.036Z,19.50
2023-01-11T14:41:03.704Z,26.00
2023-01-11T14:45:22.095Z,24.40
2023-01-11T14:49:15.879Z,23.50
2023-01-11T14:53:09.439Z,23.30
2023-01-11T14:57:18.316Z,19.30
2023-01-11T15:01:28.854Z,24.50
2023-01-11T15:05:34.329Z,22.20
2023-01-11T15:09:44.896Z,20.00
2023-01-11T15:13:38.245Z,20.20
2023-01-11T15:17:32.646Z,22.00
2023-01-11T15:21:51.393Z,22.30
2023-01-11T15:26:02.099Z,24.30
2023-01-11T15:29:52.049Z,24.80
2023-01-11T15:33:40.719Z,23.50
2023-01-11T15:37:32.510Z,21.60
2023-01-11T15:41:27.156Z,23.60
2023-01-11T15:45:18.163Z,26.80
2023-01-11T15:49:12.494Z,21.80
2023-01-11T15:53:24.129Z,21.20
2023-01-11T15:57:14.667Z,20.80
2023-01-11T16:01:21.472Z,24.80
2023-01-11T16:05:21.711Z,30.50
2023-01-11T16:09:33.034Z,23.80
2023-01-11T16:13:26.174Z,19.40
2023-01-11T16:17:19.602Z,19.40
2023-01-11T16:21:26.076Z,18.50
2023-01-11T16:25:16.276Z,17.60
2023-01-11T16:29:07.466Z,17.70
2023-01-11T16:33:23.184Z,15.60
2023-01-11T16:37:20.155Z,13.70
2023-01-11T16:41:11.926Z,16.20
2023-01-11T16:45:13.452Z,16.50
2023-01-11T16:49:19.436Z,18.80
2023-01-11T16:53:28.224Z,15.20
2023-01-11T16:57:37.435Z,16.20
2023-01-11T17:01:36.283Z,19.30
2023-01-11T17:05:30.066Z,16.90
2023-01-11T17:09:35.614Z,18.40
2023-01-11T17:13:26.221Z,13.60
2023-01-11T17:17:27.941Z,12.10
2023-01-11T17:21:23.942Z,14.80
2023-01-11T17:25:21.332Z,16.30
2023-01-11T17:29:15.441Z,13.90
2023-01-11T17:32:59.393Z,16.50
2023-01-11T17:36:51.235Z,15.60
2023-01-11T17:40:45.820Z,20.20
2023-01-11T17:44:36.191Z,17.70
2023-01-11T17:48:24.274Z,19.40
2023-01-11T17:52:15.441Z,20.40
2023-01-11T17:56:29.498Z,19.50
2023-01-11T18:00:27.860Z,22.10
2023-01-11T18:04:22.982Z,22.70
2023-01-11T18:08:14.341Z,20.60
2023-01-11T18:12:14.599Z,18.90
2023-01-11T18:16:51.570Z,17.70
2023-01-11T18:20:56.770Z,19.40
2023-01-11T18:25:12.000Z,19.80
2023-01-11T18:29:00.629Z,19.80
2023-01-11T18:33:10.533Z,15.80
2023-01-11T18:37:24.585Z,16.00
2023-01-11T18:41:34.482Z,17.40
2023-01-11T18:46:06.210Z,16.30
2023-01-11T18:50:36.537Z,18.50
2023-01-11T18:55:07.467Z,16.70
2023-01-11T18:59:39.927Z,15.40
2023-01-11T19:04:09.135Z,18.90
2023-01-11T19:08:38.606Z,17.70
2023-01-11T19:13:09.666Z,18.90
2023-01-11T19:17:41.691Z,20.40
2023-01-11T19:22:12.079Z,18.10
2023-01-11T19:26:45.840Z,16.70
2023-01-11T19:31:12.600Z,19.60
2023-01-11T19:35:47.213Z,17.90
2023-01-11T19:40:20.332Z,19.90
2023-01-11T19:44:50.077Z,18.50
2023-01-11T19:49:20.226Z,21.00
2023-01-11T19:53:50.584Z,21.60
2023-01-11T19:58:20.777Z,22.10
2023-01-11T20:02:54.480Z,20.50
2023-01-11T20:07:26.093Z,18.80
2023-01-11T20:11:57.486Z,22.50
2023-01-11T20:16:27.975Z,18.40
2023-01-11T20:20:58.633Z,19.70
2023-01-11T20:25:28.635Z,18.40
2023-01-11T20:29:58.847Z,16.80
2023-01-11T20:34:31.889Z,15.40
2023-01-11T20:39:04.153Z,13.40
2023-01-11T20:43:37.923Z,11.10
2023-01-11T20:48:09.955Z,13.10
2023-01-11T20:52:46.599Z,10.20
2023-01-11T20:57:20.539Z,12.60
2023-01-11T21:01:50.598Z,11.80
2023-01-11T21:06:20.759Z,10.30
2023-01-11T21:10:51.478Z,10.70
2023-01-11T21:15:27.074Z,10.80
2023-01-11T21:19:58.217Z,11.50
2023-01-11T21:24:29.937Z,11.30
2023-01-11T21:29:00.870Z,12.30
2023-01-11T21:33:31.070Z,13.30
2023-01-11T21:38:01.320Z,11.10
2023-01-11T21:42:32.857Z,11.80
2023-01-11T21:47:04.503Z,10.70
2023-01-11T21:51:36.308Z,10.80
2023-01-11T22:00:12.367Z,13.40
2023-01-11T22:04:40.456Z,10.60
2023-01-11T22:09:08.510Z,11.10
2023-01-11T22:13:40.963Z,12.70
2023-01-11T22:18:08.839Z,11.80
2023-01-11T22:22:43.406Z,13.80
2023-01-11T22:27:11.491Z,11.00
2023-01-11T22:31:45.258Z,12.30
2023-01-11T22:36:14.046Z,14.40
2023-01-11T22:40:42.301Z,18.50
2023-01-11T22:45:11.243Z,16.00
2023-01-11T22:49:50.229Z,15.70
2023-01-11T22:54:25.227Z,14.70
2023-01-11T22:58:53.170Z,15.10
2023-01-11T23:03:21.763Z,15.10
2023-01-11T23:07:52.875Z,15.20
2023-01-11T23:12:27.245Z,14.90
2023-01-11T23:16:54.809Z,14.90
2023-01-11T23:21:31.985Z,15.40
2023-01-11T23:26:06.877Z,15.90
2023-01-11T23:30:34.869Z,14.70
2023-01-11T23:35:02.689Z,18.70
2023-01-11T23:39:30.437Z,14.50
2023-01-11T23:44:03.963Z,15.80
2023-01-11T23:48:32.704Z,14.40
2023-01-11T23:53:06.323Z,15.40
2023-01-11T23:57:35.340Z,14.60
